Time;durP1;ratioP1;P1;durP2;ratioP2;P2;SDS_P1;SDS_P2;PMS_P1;PMS_P2;Temp;Humidity;BMP_temperature;BMP_pressure;BME280_temperature;BME280_humidity;BME280_pressure;Samples;Min_cycle;Max_cycle;Signal;HPM_P1;HPM_P2
2023/05/08 00:01:56;;;;;;;6.90;6.30;;;7.80;99.90;;;-141.84;70.01;19557.78;5034703;28;20213;-73
2023/05/08 00:04:25;;;;;;;7.47;6.77;;;7.80;99.90;;;-141.84;70.22;19545.56;5034405;28;20206;-72
2023/05/08 00:06:53;;;;;;;6.87;6.27;;;7.80;99.90;;;-141.84;70.01;19578.09;5034624;28;20206;-73
2023/05/08 00:09:21;;;;;;;6.87;6.20;;;7.80;99.90;;;-141.84;70.07;19582.16;5034252;28;20213;-72
2023/05/08 00:11:49;;;;;;;7.60;6.90;;;7.70;99.90;;;-141.84;70.04;19551.69;5034213;28;20202;-71
2023/05/08 00:14:19;;;;;;;8.13;6.30;;;7.70;99.90;;;-141.84;70.04;19549.63;5034227;28;20213;-72
2023/05/08 00:16:47;;;;;;;6.80;6.20;;;7.70;99.90;;;-141.84;70.43;19539.47;5034209;28;20625;-71
2023/05/08 00:19:15;;;;;;;7.43;6.73;;;7.70;99.90;;;-141.84;70.20;19541.50;5034172;28;20222;-72
2023/05/08 00:21:43;;;;;;;7.27;6.57;;;7.70;99.90;;;-141.84;70.87;19539.47;5033709;28;20730;-72
2023/05/08 00:24:11;;;;;;;6.47;5.87;;;7.60;99.90;;;-141.84;71.13;19529.31;5033993;28;20210;-71
2023/05/08 00:26:40;;;;;;;8.30;6.63;;;7.60;99.90;;;-141.84;71.25;19509.00;5033859;28;20234;-73
2023/05/08 00:29:09;;;;;;;7.03;6.33;;;7.60;99.90;;;-141.84;70.46;19537.44;5033729;28;20189;-72
2023/05/08 00:31:38;;;;;;;7.53;6.70;;;7.60;99.90;;;-141.84;70.56;19578.09;5033742;28;20198;-72
2023/05/08 00:34:06;;;;;;;7.23;6.53;;;7.60;99.90;;;-141.84;70.18;19545.56;5033622;28;20248;-74
2023/05/08 00:36:34;;;;;;;7.53;6.73;;;7.60;99.90;;;-141.84;69.64;19567.94;5033930;28;20217;-73
2023/05/08 00:39:03;;;;;;;7.37;6.67;;;7.70;99.90;;;-141.84;69.69;19543.53;5033859;28;20221;-71
2023/05/08 00:41:31;;;;;;;6.73;6.13;;;7.70;99.90;;;-141.84;70.25;19555.75;5033598;28;20210;-72
2023/05/08 00:43:59;;;;;;;8.53;6.63;;;7.60;99.90;;;-141.84;70.78;19541.50;5033800;28;20206;-71
2023/05/08 00:46:28;;;;;;;6.90;6.30;;;7.50;99.90;;;-141.84;71.15;19547.59;5033674;28;20206;-72
2023/05/08 00:48:57;;;;;;;7.10;6.40;;;7.50;99.90;;;-141.84;71.23;19513.06;5033469;28;20286;-72
2023/05/08 00:51:27;;;;;;;7.00;6.30;;;7.50;99.90;;;-141.84;71.22;19533.38;5033234;28;20201;-72
2023/05/08 00:53:56;;;;;;;7.30;6.60;;;7.40;99.90;;;-141.84;70.43;19553.72;5033580;28;20211;-72
2023/05/08 00:56:25;;;;;;;7.53;6.83;;;7.50;99.90;;;-141.84;70.61;19533.38;5033161;28;20193;-72
2023/05/08 00:58:55;;;;;;;7.33;6.63;;;7.50;99.90;;;-141.84;70.74;19515.09;5033526;28;20206;-72
2023/05/08 01:01:24;;;;;;;7.53;6.83;;;7.40;99.90;;;-141.84;71.12;19494.78;5033029;28;20206;-71
2023/05/08 01:03:52;;;;;;;7.10;6.50;;;7.40;99.90;;;-141.84;71.83;19504.94;5033325;28;20308;-71
2023/05/08 01:06:22;;;;;;;7.47;6.67;;;7.30;99.90;;;-141.84;71.97;19496.81;5032989;28;20202;-72
2023/05/08 01:08:50;;;;;;;8.43;7.00;;;7.30;99.90;;;-141.84;71.59;19521.19;5033482;28;20747;-72
2023/05/08 01:11:27;;;;;;;7.27;6.57;;;7.30;99.90;;;-141.84;71.81;19519.16;5033300;28;20558;-72
2023/05/08 01:14:11;;;;;;;7.47;6.77;;;7.30;99.90;;;-141.84;71.80;19529.31;5033386;28;20189;-73
2023/05/08 01:16:52;;;;;;;7.23;6.53;;;7.30;99.90;;;-141.84;72.13;19504.94;5032692;28;20186;-72
2023/05/08 01:19:50;;;;;;;8.27;6.87;;;7.40;99.90;;;-141.84;71.72;19535.41;5032899;28;20214;-71
2023/05/08 01:22:43;;;;;;;7.47;6.77;;;7.30;99.90;;;-141.84;71.70;19496.81;5033099;28;20210;-72
2023/05/08 01:25:46;;;;;;;7.87;7.00;;;;;;;-141.84;71.89;19521.19;5032782;28;20218;-72
2023/05/08 01:28:42;;;;;;;7.93;7.13;;;;;;;-141.84;71.71;19525.25;5032919;28;20236;-72
2023/05/08 01:31:19;;;;;;;7.77;6.90;;;;;;;-141.84;71.75;19502.91;5027185;28;20273;-74
2023/05/08 01:33:56;;;;;;;7.73;7.03;;;;;;;-141.84;72.62;19511.03;5026865;28;20578;-73
2023/05/08 01:36:33;;;;;;;8.20;7.40;;;;;;;-141.84;72.06;19506.97;5032692;28;20236;-71
2023/05/08 01:39:15;;;;;;;7.87;7.07;;;7.30;99.90;;;-141.84;72.66;19443.97;5032968;28;20209;-71
2023/05/08 01:41:57;;;;;;;7.20;6.60;;;7.10;99.90;;;-141.84;73.01;19443.97;5031801;28;20187;-71
2023/05/08 01:44:35;;;;;;;7.77;6.97;;;7.00;99.90;;;-141.84;73.14;19474.44;5033003;28;20189;-73
2023/05/08 01:47:08;;;;;;;8.23;7.43;;;7.00;99.90;;;-141.84;72.57;19494.78;5032675;28;20200;-72
2023/05/08 01:49:45;;;;;;;9.57;7.23;;;7.00;99.90;;;-141.84;73.15;19450.06;5032858;28;20217;-72
2023/05/08 01:52:20;;;;;;;8.40;7.60;;;7.00;99.90;;;-141.84;73.72;19456.16;5032511;28;20185;-72
2023/05/08 01:54:58;;;;;;;7.83;7.03;;;6.90;99.90;;;-141.84;73.93;19462.25;5032884;28;20193;-71
2023/05/08 01:57:29;;;;;;;8.33;7.53;;;6.80;99.90;;;-141.84;73.52;19474.44;5032305;28;20200;-73
2023/05/08 02:00:02;;;;;;;8.10;7.30;;;6.80;99.90;;;-141.84;73.39;19458.19;5032721;28;20599;-72
2023/05/08 02:02:34;;;;;;;8.03;7.23;;;;;;;-141.84;73.82;19454.13;5032342;28;20281;-71
2023/05/08 02:05:07;;;;;;;8.77;7.47;;;6.80;99.90;;;-141.84;73.55;19492.75;5032543;28;20216;-71
2023/05/08 02:07:37;;;;;;;9.53;7.40;;;6.80;99.90;;;-141.84;73.75;19448.03;5032635;28;20193;-73
2023/05/08 02:10:09;;;;;;;8.83;7.93;;;6.80;99.90;;;-141.84;73.52;19431.78;5032704;28;20190;-72
2023/05/08 02:12:41;;;;;;;7.80;7.10;;;6.80;99.90;;;-141.84;73.87;19452.09;5032350;28;20642;-71
2023/05/08 02:15:13;;;;;;;8.67;7.40;;;6.70;99.90;;;-141.84;73.31;19472.41;5032438;28;20189;-72
2023/05/08 02:17:45;;;;;;;8.00;7.27;;;6.80;99.90;;;-141.84;74.31;19407.38;5032399;28;20196;-73
2023/05/08 02:20:16;;;;;;;9.43;7.47;;;6.70;99.90;;;-141.84;74.78;19448.03;5032393;28;20241;-72
2023/05/08 02:22:47;;;;;;;8.30;7.40;;;6.60;99.90;;;-141.84;74.15;19446.00;5032363;28;20201;-73
2023/05/08 02:25:16;;;;;;;10.83;7.90;;;;;;;-141.84;74.64;19421.63;5029048;28;20206;-72
2023/05/08 02:27:49;;;;;;;8.40;7.57;;;;;;;-141.84;74.69;19464.28;5012295;28;20233;-72
2023/05/08 02:30:19;;;;;;;8.93;8.03;;;;;;;-141.84;74.68;19433.81;5019397;28;20201;-71
2023/05/08 02:32:49;;;;;;;8.50;7.60;;;;;;;-141.84;74.81;19435.84;5032092;28;20212;-71
2023/05/08 02:35:21;;;;;;;8.83;8.03;;;;;;;-141.84;74.89;19454.13;5032121;28;20241;-72
2023/05/08 02:37:52;;;;;;;8.00;7.20;;;;;;;-141.84;74.39;19431.78;5032351;28;20548;-71
2023/05/08 02:40:26;;;;;;;8.67;7.60;;;6.60;99.90;;;-141.84;75.10;19413.47;5032159;28;20293;-72
2023/05/08 02:42:55;;;;;;;8.80;7.80;;;;;;;-141.84;75.78;19401.28;5031359;28;20196;-72
2023/05/08 02:45:27;;;;;;;8.53;7.63;;;6.50;99.90;;;-141.84;75.25;19411.44;5031819;28;20673;-71
2023/05/08 02:48:09;;;;;;;8.37;7.53;;;6.50;99.90;;;-141.84;75.37;19419.59;5031501;28;20284;-71
2023/05/08 02:50:49;;;;;;;8.80;7.37;;;6.40;99.90;;;-141.84;75.54;19395.19;5012345;28;20187;-73
2023/05/08 02:53:26;;;;;;;8.67;7.80;;;6.40;99.90;;;-141.84;75.20;19399.25;5013564;28;20197;-71
2023/05/08 02:56:05;;;;;;;9.23;7.90;;;6.40;99.90;;;-141.84;75.19;19417.56;5016066;28;20196;-73
2023/05/08 02:58:43;;;;;;;8.93;8.13;;;6.40;99.90;;;-141.84;76.06;19397.22;5015689;28;20197;-72
2023/05/08 03:01:24;;;;;;;9.53;8.20;;;6.40;99.90;;;-141.84;76.01;19399.25;5035619;28;20213;-72
2023/05/08 03:04:03;;;;;;;9.03;8.13;;;6.30;99.90;;;-141.84;75.76;19405.34;5031244;28;20202;-72
2023/05/08 03:06:41;;;;;;;8.90;8.00;;;6.30;99.90;;;-141.84;76.09;19389.09;5029239;28;20697;-71
2023/05/08 03:09:16;;;;;;;8.93;8.03;;;6.30;99.90;;;-141.84;75.24;19407.38;5035626;28;20194;-72
2023/05/08 03:11:48;;;;;;;10.17;8.50;;;6.30;99.90;;;-141.84;75.40;19389.09;5035489;28;20217;-73
2023/05/08 03:14:24;;;;;;;9.70;8.70;;;6.30;99.90;;;-141.84;75.47;19407.38;5035553;28;20182;-73
2023/05/08 03:16:57;;;;;;;10.63;8.63;;;6.30;99.90;;;-141.84;75.71;19372.84;5035275;28;20185;-72
2023/05/08 03:19:34;;;;;;;9.67;8.50;;;6.30;99.90;;;-141.84;76.26;19403.31;5035306;28;20194;-71
2023/05/08 03:22:07;;;;;;;8.93;8.03;;;6.20;99.90;;;-141.84;76.18;19380.97;5035018;28;20221;-72
2023/05/08 03:24:40;;;;;;;10.10;9.10;;;6.20;99.90;;;-141.84;75.85;19380.97;5035328;28;20212;-73
2023/05/08 03:27:09;;;;;;;9.50;8.57;;;6.20;99.90;;;-141.84;76.85;19383.00;5034824;28;20244;-72
2023/05/08 03:29:39;;;;;;;10.03;9.03;;;6.10;99.90;;;-141.84;77.10;19342.34;5035476;28;20232;-72
2023/05/08 03:32:09;;;;;;;9.27;8.37;;;6.10;99.90;;;-141.84;76.67;19376.91;5035589;28;20247;-72
2023/05/08 03:34:38;;;;;;;9.07;8.17;;;6.10;99.90;;;-141.84;76.38;19346.44;5035060;28;20209;-71
2023/05/08 03:37:08;;;;;;;9.17;8.07;;;6.10;99.90;;;-141.84;75.96;19419.59;5034989;28;20212;-71
2023/05/08 03:39:36;;;;;;;9.70;8.70;;;6.20;99.90;;;-141.84;76.18;19399.25;5035423;28;20212;-72
2023/05/08 03:42:05;;;;;;;11.33;9.10;;;6.20;99.90;;;-141.84;75.70;19401.28;5034971;28;20225;-72
2023/05/08 03:44:34;;;;;;;9.67;8.70;;;6.20;99.90;;;-141.84;75.47;19364.72;5034949;28;20220;-72
2023/05/08 03:47:04;;;;;;;8.87;8.00;;;6.20;99.90;;;-141.84;76.46;19354.56;5034528;28;20574;-71
2023/05/08 03:49:35;;;;;;;9.67;8.53;;;6.20;99.90;;;-141.84;76.23;19389.09;5034602;28;20201;-71
2023/05/08 03:52:04;;;;;;;9.87;8.87;;;6.20;99.90;;;-141.84;76.28;19401.28;5034924;28;20201;-72
2023/05/08 03:54:34;;;;;;;10.53;9.43;;;6.20;99.90;;;-141.84;75.26;19403.31;5034526;28;20701;-73
2023/05/08 03:57:02;;;;;;;10.00;8.90;;;6.30;99.90;;;-141.84;76.20;19348.47;5034304;28;20205;-72
2023/05/08 03:59:44;;;;;;;10.17;9.17;;;6.20;99.90;;;-141.84;75.99;19378.94;5034302;28;20227;-72
2023/05/08 04:02:23;;;;;;;10.37;9.30;;;6.20;99.90;;;-141.84;75.95;19403.31;5034481;28;20209;-71
2023/05/08 04:05:05;;;;;;;9.80;8.80;;;6.20;99.90;;;-141.84;75.53;19415.50;5033650;28;20527;-71
2023/05/08 04:07:42;;;;;;;10.70;9.13;;;6.30;99.90;;;-141.84;75.85;19370.81;5034548;28;20205;-70
2023/05/08 04:10:24;;;;;;;9.93;8.93;;;6.30;99.90;;;-141.84;75.26;19401.28;5034713;28;20189;-71
2023/05/08 04:13:05;;;;;;;10.43;9.30;;;6.30;99.90;;;-141.84;74.78;19403.31;5034417;28;20570;-72
2023/05/08 04:15:38;;;;;;;9.83;8.87;;;6.40;99.90;;;-141.84;75.04;19439.91;5034686;28;20189;-71
2023/05/08 04:18:10;;;;;;;9.83;8.83;;;6.40;99.90;;;-141.84;74.97;19417.56;5033788;28;20209;-70
2023/05/08 04:20:41;;;;;;;10.40;9.30;;;6.40;99.90;;;-141.84;75.03;19395.19;5033360;28;20213;-71
2023/05/08 04:23:18;;;;;;;9.80;8.77;;;6.40;99.90;;;-141.84;74.31;19413.47;5033583;28;20217;-73
2023/05/08 04:25:51;;;;;;;9.50;8.33;;;6.50;99.90;;;-141.84;74.59;19401.28;5033535;28;20208;-71
2023/05/08 04:28:20;;;;;;;10.43;8.97;;;6.50;99.90;;;-141.84;74.13;19435.84;5033179;28;20236;-73
2023/05/08 04:30:50;;;;;;;9.57;8.57;;;6.50;99.90;;;-141.84;74.49;19427.72;5033893;28;20205;-71
2023/05/08 04:33:18;;;;;;;10.53;8.80;;;6.60;99.90;;;-141.84;73.70;19423.66;5033305;28;20213;-72
2023/05/08 04:35:47;;;;;;;9.47;8.47;;;6.60;99.90;;;-141.84;72.91;19458.19;5034008;28;20209;-71
2023/05/08 04:38:15;;;;;;;9.73;8.80;;;6.70;99.90;;;-141.84;73.00;19472.41;5033459;28;20852;-73
2023/05/08 04:40:43;;;;;;;10.17;8.77;;;6.80;99.90;;;-141.84;72.96;19464.28;5033720;28;20205;-73
2023/05/08 04:43:13;;;;;;;9.20;8.30;;;6.80;99.90;;;-141.84;73.54;19474.44;5033772;28;20212;-72
2023/05/08 04:45:41;;;;;;;9.57;8.23;;;6.90;99.90;;;-141.84;72.91;19484.59;5033739;28;20216;-73
2023/05/08 04:48:09;;;;;;;9.27;8.37;;;6.90;99.90;;;-141.84;73.05;19458.19;5032814;28;20649;-71
2023/05/08 04:50:37;;;;;;;9.77;8.77;;;6.90;99.90;;;-141.84;72.80;19498.84;5033062;28;20213;-74
2023/05/08 04:53:05;;;;;;;10.10;8.90;;;7.10;99.90;;;-141.84;72.17;19533.38;5032525;28;20209;-71
2023/05/08 04:55:34;;;;;;;9.73;8.73;;;7.30;99.90;;;-141.84;69.81;19602.47;5032483;28;20202;-71
2023/05/08 04:58:02;;;;;;;9.07;8.20;;;7.80;99.90;;;-141.84;63.03;19862.63;5029911;28;20606;-73
2023/05/08 05:00:31;;;;;;;8.17;7.37;;;8.90;99.90;;;-141.84;57.97;20000.81;5013819;28;20568;-73
2023/05/08 05:03:00;;;;;;;8.17;7.43;;;10.00;99.90;;;-141.84;55.32;20134.97;5015235;28;20233;-71
2023/05/08 05:05:28;;;;;;;7.63;6.93;;;10.90;99.90;;;-141.84;52.81;20269.13;5033141;28;20237;-72
2023/05/08 05:07:56;;;;;;;7.78;6.68;;;11.70;99.90;;;-141.84;50.03;20338.22;5033375;28;20206;-71
2023/05/08 05:10:24;;;;;;;7.88;6.72;;;12.50;99.90;;;-141.84;48.84;20411.41;5033241;28;20665;-72
2023/05/08 05:12:52;;;;;;;6.93;6.32;;;12.90;99.90;;;-141.84;49.36;20346.34;5033679;28;20197;-72
2023/05/08 05:15:21;;;;;;;7.35;6.35;;;12.90;99.90;;;-141.84;51.23;20232.53;5032953;28;20269;-72
2023/05/08 05:17:50;;;;;;;7.73;7.07;;;12.60;99.90;;;-141.84;54.06;20102.44;5032965;28;20198;-73
2023/05/08 05:20:19;;;;;;;7.30;6.60;;;12.20;99.90;;;-141.84;55.69;20049.59;5033117;28;20205;-74
2023/05/08 05:22:47;;;;;;;7.73;7.03;;;11.70;99.90;;;-141.84;56.68;19980.50;5033120;28;20222;-72
2023/05/08 05:25:15;;;;;;;8.63;7.67;;;11.30;99.90;;;-141.84;57.67;19945.94;5032575;28;20674;-72
2023/05/08 05:27:43;;;;;;;8.77;7.97;;;11.00;99.90;;;-141.84;58.30;19891.06;5032694;28;20234;-72
2023/05/08 05:30:12;;;;;;;8.43;7.53;;;10.90;99.90;;;-141.84;59.13;19858.56;5032372;28;20659;-72
2023/05/08 05:32:41;;;;;;;8.10;7.40;;;10.70;99.90;;;-141.84;59.26;19887.00;5032679;28;20206;-74
2023/05/08 05:35:11;;;;;;;8.40;7.67;;;10.60;99.90;;;-141.84;59.44;19830.09;5032427;28;20213;-72
2023/05/08 05:37:40;;;;;;;8.40;7.60;;;10.40;99.90;;;-141.84;59.38;19862.63;5032535;28;20731;-71
2023/05/08 05:40:12;;;;;;;9.07;8.17;;;10.40;99.90;;;-141.84;59.95;19850.41;5032533;28;20197;-71
2023/05/08 05:42:40;;;;;;;8.80;7.90;;;10.30;99.90;;;-141.84;59.62;19884.97;5032394;28;20241;-71
2023/05/08 05:45:09;;;;;;;8.77;7.87;;;10.40;99.90;;;-141.84;59.21;19882.94;5032622;28;20198;-72
2023/05/08 05:47:38;;;;;;;8.53;7.83;;;10.50;99.90;;;-141.84;59.44;19903.25;5032418;28;20205;-72
2023/05/08 05:50:07;;;;;;;8.97;8.10;;;10.60;99.90;;;-141.84;58.96;19921.56;5032522;28;20206;-73
2023/05/08 05:52:37;;;;;;;8.37;7.47;;;10.70;99.90;;;-141.84;59.09;19935.78;5032539;28;20718;-72
2023/05/08 05:55:06;;;;;;;8.63;7.80;;;10.80;99.90;;;-141.84;59.30;19935.78;5032881;28;20205;-71
2023/05/08 05:57:34;;;;;;;10.07;7.70;;;10.90;99.90;;;-141.84;58.25;19964.25;5031258;28;20202;-71
2023/05/08 06:00:03;;;;;;;9.30;7.67;;;11.00;99.90;;;-141.84;58.93;19929.69;5032189;28;20222;-73
2023/05/08 06:02:32;;;;;;;9.43;8.10;;;11.00;99.90;;;-141.84;58.30;19923.59;5031604;28;20272;-70
2023/05/08 06:05:01;;;;;;;8.77;7.90;;;10.90;99.90;;;-141.84;58.96;19905.28;5031820;28;20665;-72
2023/05/08 06:07:29;;;;;;;9.00;8.10;;;10.80;99.90;;;-141.84;59.70;19911.41;5032385;28;20197;-71
2023/05/08 06:09:58;;;;;;;8.53;7.73;;;10.80;99.90;;;-141.84;58.66;19943.91;5032211;28;20202;-71
2023/05/08 06:12:27;;;;;;;8.30;7.50;;;10.90;99.90;;;-141.84;58.68;19919.53;5032384;28;20561;-71
2023/05/08 06:14:55;;;;;;;11.17;8.10;;;11.10;99.90;;;-141.84;58.18;19964.25;5032441;28;20224;-71
2023/05/08 06:17:23;;;;;;;8.73;7.90;;;11.20;99.90;;;-141.84;57.85;19988.63;5032186;28;20206;-72
2023/05/08 06:19:55;;;;;;;8.47;7.63;;;11.40;99.90;;;-141.84;57.86;20008.94;5032109;28;20194;-72
2023/05/08 06:22:24;;;;;;;8.27;7.47;;;11.50;99.90;;;-141.84;57.42;20029.28;5032155;28;20704;-72
2023/05/08 06:24:53;;;;;;;8.77;7.87;;;11.70;99.90;;;-141.84;57.26;20069.94;5032224;28;20304;-71
2023/05/08 06:27:23;;;;;;;8.37;7.57;;;11.80;99.90;;;-141.84;55.46;20065.84;5032003;28;20728;-72
2023/05/08 06:29:51;;;;;;;9.13;7.80;;;11.90;99.90;;;-141.84;56.26;20004.88;5036276;28;20194;-72
2023/05/08 06:32:20;;;;;;;8.57;7.53;;;11.80;99.90;;;-141.84;56.78;20029.28;5033940;28;20197;-65
2023/05/08 06:34:49;;;;;;;8.10;7.27;;;11.80;99.90;;;-141.84;56.27;20013.00;5030075;28;20220;-65
2023/05/08 06:37:17;;;;;;;8.63;7.70;;;11.70;99.90;;;-141.84;55.89;20039.44;5018857;28;20221;-64
2023/05/08 06:39:45;;;;;;;8.13;7.33;;;11.80;99.90;;;-141.84;55.63;20076.03;5035655;28;20202;-66
2023/05/08 06:42:17;;;;;;;8.70;7.83;;;11.90;99.90;;;-141.84;55.68;20045.53;5034269;28;20210;-66
2023/05/08 06:44:47;;;;;;;8.90;7.33;;;11.90;99.90;;;-141.84;55.55;20035.38;5035378;28;20206;-65
2023/05/08 06:47:15;;;;;;;8.30;7.50;;;11.90;99.90;;;-141.84;56.26;20004.88;5035322;28;20236;-67
2023/05/08 06:49:43;;;;;;;8.43;7.63;;;11.80;99.90;;;-141.84;57.15;20017.09;5035115;28;20209;-66
2023/05/08 06:52:11;;;;;;;8.67;7.87;;;11.80;99.90;;;-141.84;56.49;20092.28;5025887;28;20201;-67
2023/05/08 06:54:40;;;;;;;8.07;7.27;;;12.00;99.90;;;-141.84;56.46;20108.53;5035325;28;20202;-70
2023/05/08 06:57:09;;;;;;;7.30;6.60;;;12.20;99.90;;;-141.84;55.31;20112.59;5032383;28;20232;-70
2023/05/08 06:59:40;;;;;;;8.23;7.53;;;12.30;99.90;;;-141.84;54.22;20179.69;5033831;28;20237;-68
2023/05/08 07:02:10;;;;;;;7.83;7.07;;;12.40;99.90;;;-141.84;54.36;20169.53;5029396;28;20196;-68
2023/05/08 07:04:38;;;;;;;8.20;7.40;;;12.50;99.90;;;-141.84;54.49;20149.19;5033424;28;20218;-69
2023/05/08 07:07:07;;;;;;;8.00;7.17;;;12.40;99.90;;;-141.84;55.05;20165.44;5032890;28;20309;-69
2023/05/08 07:09:35;;;;;;;8.07;7.27;;;12.50;99.90;;;-141.84;55.19;20175.63;5033716;28;20292;-64
2023/05/08 07:12:04;;;;;;;9.33;7.20;;;12.50;99.90;;;-141.84;54.97;20147.16;5033562;28;20210;-63
2023/05/08 07:14:32;;;;;;;7.97;7.27;;;12.60;99.90;;;-141.84;54.47;20147.16;5033195;28;20202;-66
2023/05/08 07:17:05;;;;;;;7.90;7.10;;;12.60;99.90;;;-141.84;55.12;20171.56;5032079;28;20202;-68
2023/05/08 07:19:36;;;;;;;8.33;7.37;;;12.70;99.90;;;-141.84;54.81;20185.78;5029086;28;20204;-68
2023/05/08 07:22:05;;;;;;;8.30;7.43;;;12.70;99.90;;;-141.84;54.61;20181.72;5032350;28;20285;-66
2023/05/08 07:24:33;;;;;;;8.67;7.80;;;12.70;99.90;;;-141.84;55.00;20149.19;5032510;28;20217;-67
2023/05/08 07:27:02;;;;;;;11.30;7.70;;;12.60;99.90;;;-141.84;55.35;20181.72;5031608;28;20222;-67
2023/05/08 07:29:30;;;;;;;8.27;7.47;;;12.60;99.90;;;-141.84;54.97;20155.28;5031836;28;20200;-65
2023/05/08 07:31:58;;;;;;;8.57;7.43;;;12.50;99.90;;;-141.84;54.57;20155.28;5030950;28;20213;-68
2023/05/08 07:34:27;;;;;;;7.53;6.83;;;12.50;99.90;;;-141.84;55.24;20147.16;5031076;28;20288;-62
2023/05/08 07:36:56;;;;;;;7.67;6.97;;;12.50;99.90;;;-141.84;54.95;20179.69;5032131;28;20684;-62
2023/05/08 07:39:24;;;;;;;8.37;7.57;;;12.60;99.90;;;-141.84;54.20;20167.47;5031475;28;20205;-63
2023/05/08 07:41:52;;;;;;;8.17;7.13;;;12.70;99.90;;;-141.84;54.50;20185.78;5029430;28;20685;-62
2023/05/08 07:44:21;;;;;;;8.50;7.70;;;12.70;99.90;;;-141.84;54.68;20189.84;5030691;28;20224;-65
2023/05/08 07:46:49;;;;;;;7.90;7.20;;;12.70;99.90;;;-141.84;54.89;20169.53;5031995;28;20626;-68
2023/05/08 07:49:18;;;;;;;8.40;7.60;;;12.80;99.90;;;-141.84;54.22;20214.22;5032396;28;20313;-69
2023/05/08 07:51:46;;;;;;;8.50;7.70;;;12.80;99.90;;;-141.84;54.29;20230.50;5031799;28;20213;-68
2023/05/08 07:54:15;;;;;;;8.57;7.77;;;12.90;99.90;;;-141.84;54.44;20204.06;5032572;28;20202;-65
2023/05/08 07:56:43;;;;;;;8.33;7.53;;;12.90;99.90;;;-141.84;53.45;20246.75;5031975;28;20206;-66
2023/05/08 07:59:12;;;;;;;8.93;8.03;;;13.00;99.90;;;-141.84;53.25;20256.91;5031924;28;20198;-66
2023/05/08 08:01:42;;;;;;;8.30;7.50;;;13.00;99.90;;;-141.84;53.56;20240.66;5031734;28;20194;-65
2023/05/08 08:04:10;;;;;;;8.20;7.40;;;13.10;99.90;;;-141.84;54.29;20236.59;5031227;28;20249;-67
2023/05/08 08:06:41;;;;;;;8.37;7.47;;;13.10;99.90;;;-141.84;53.61;20260.97;5031438;28;20657;-70
2023/05/08 08:09:10;;;;;;;7.60;6.90;;;13.20;99.90;;;-141.84;53.21;20281.31;5032331;28;20635;-65
2023/05/08 08:11:40;;;;;;;8.07;7.37;;;13.30;99.90;;;-141.84;52.74;20321.97;5031887;28;20210;-64
2023/05/08 08:14:08;;;;;;;8.77;7.87;;;13.50;99.90;;;-141.84;52.01;20297.56;5031473;28;20681;-69
2023/05/08 08:16:36;;;;;;;8.33;7.60;;;13.50;99.90;;;-141.84;52.40;20307.72;5031339;28;20544;-70
2023/05/08 08:19:04;;;;;;;8.20;7.40;;;13.40;99.90;;;-141.84;52.64;20281.31;5031336;28;20229;-68
2023/05/08 08:21:32;;;;;;;7.83;7.13;;;13.40;99.90;;;-141.84;52.98;20297.56;5032389;28;20199;-67
2023/05/08 08:24:00;;;;;;;8.27;7.47;;;13.50;99.90;;;-141.84;52.56;20342.28;5031665;28;20701;-66
2023/05/08 08:26:28;;;;;;;8.83;7.93;;;13.60;99.90;;;-141.84;52.18;20366.69;5030326;28;20222;-64
2023/05/08 08:28:58;;;;;;;9.85;6.95;;;13.70;99.90;;;-141.84;52.63;20346.34;5031670;28;20200;-66
2023/05/08 08:31:26;;;;;;;8.20;7.40;;;13.70;99.90;;;-141.84;52.55;20362.63;5031184;28;20676;-67
2023/05/08 08:33:55;;;;;;;7.90;7.20;;;13.80;99.90;;;-141.84;52.59;20358.56;5031028;28;20540;-67
2023/05/08 08:36:23;;;;;;;8.13;7.33;;;13.90;99.90;;;-141.84;51.45;20384.97;5024378;28;20205;-66
2023/05/08 08:38:52;;;;;;;7.88;7.07;;;14.00;99.90;;;-141.84;51.66;20411.41;5031347;28;20202;-69
2023/05/08 08:41:22;;;;;;;8.18;7.38;;;14.00;99.90;;;-141.84;51.62;20425.63;5024006;28;20707;-70
2023/05/08 08:43:50;;;;;;;8.00;7.18;;;14.10;99.90;;;-141.84;50.47;20450.03;5028690;28;20712;-68
2023/05/08 08:46:26;;;;;;;7.95;7.22;;;14.20;99.90;;;-141.84;51.34;20358.56;5030320;28;20206;-71
2023/05/08 08:48:56;;;;;;;7.93;7.22;;;13.90;99.90;;;-141.84;52.24;20401.22;5029793;28;20190;-71
2023/05/08 08:51:31;;;;;;;8.00;7.20;;;14.00;99.90;;;-141.84;52.16;20380.91;5029064;28;20190;-67
2023/05/08 08:54:08;;;;;;;7.80;7.07;;;14.00;99.90;;;-141.84;52.27;20368.72;5029202;28;20190;-65
2023/05/08 08:56:39;;;;;;;8.50;7.00;;;14.00;99.90;;;-141.84;52.38;20354.47;5029424;28;20190;-65
2023/05/08 08:59:09;;;;;;;9.20;7.97;;;13.80;99.90;;;-141.84;52.81;20342.28;5028984;28;20212;-66
2023/05/08 09:01:44;;;;;;;8.70;7.90;;;13.90;99.90;;;-141.84;52.51;20368.72;5029185;28;20208;-70
2023/05/08 09:04:12;;;;;;;8.68;7.95;;;13.80;99.90;;;-141.84;53.06;20334.16;5028534;28;20209;-69
2023/05/08 09:06:41;;;;;;;8.65;7.85;;;13.80;99.90;;;-141.84;52.64;20362.63;5028622;28;20205;-70
2023/05/08 09:09:11;;;;;;;9.00;7.30;;;13.80;99.90;;;-141.84;52.78;20380.91;5028808;28;20578;-69
2023/05/08 09:11:41;;;;;;;10.05;8.23;;;13.90;99.90;;;-141.84;52.40;20382.94;5028988;28;20200;-67
2023/05/08 09:14:09;;;;;;;8.55;7.75;;;13.90;99.90;;;-141.84;52.74;20387.00;5029075;28;20198;-64
2023/05/08 09:16:39;;;;;;;8.57;7.63;;;14.00;99.90;;;-141.84;52.21;20391.06;5028519;28;20289;-66
2023/05/08 09:19:08;;;;;;;8.43;7.63;;;14.10;99.90;;;-141.84;52.29;20338.22;5028349;28;20212;-69
2023/05/08 09:21:37;;;;;;;8.02;7.32;;;14.00;99.90;;;-141.84;52.36;20387.00;5028819;28;20204;-69
2023/05/08 09:24:06;;;;;;;7.63;6.93;;;13.90;99.90;;;-141.84;52.04;20384.97;5028286;28;20241;-70
2023/05/08 09:26:37;;;;;;;7.60;6.90;;;14.00;99.90;;;-141.84;51.42;20370.75;5028001;28;20762;-70
2023/05/08 09:29:11;;;;;;;9.23;8.05;;;14.00;99.90;;;-141.84;51.31;20409.38;5025572;28;20395;-71
2023/05/08 09:31:43;;;;;;;8.43;7.40;;;14.10;99.90;;;-141.84;51.73;20423.59;5027037;28;20201;-67
2023/05/08 09:34:22;;;;;;;7.57;6.88;;;14.20;99.90;;;-141.84;51.09;20454.09;5027040;28;20202;-67
2023/05/08 09:36:51;;;;;;;7.80;7.10;;;14.20;99.90;;;-141.84;50.78;20447.97;5026138;28;20670;-67
2023/05/08 09:39:25;;;;;;;8.05;7.25;;;14.30;99.90;;;-141.84;51.06;20403.25;5027282;28;20626;-68
2023/05/08 09:41:58;;;;;;;7.85;6.70;;;14.30;99.90;;;-141.84;50.46;20437.81;5027455;28;20194;-68
2023/05/08 09:44:27;;;;;;;7.28;6.50;;;14.40;99.90;;;-141.84;50.05;20460.19;5026403;28;20217;-69
2023/05/08 09:50:04;;;;;;;8.63;6.53;;;14.50;99.90;;;-141.84;49.77;20504.91;5087257;27;20577;-67
2023/05/08 09:52:35;;;;;;;6.72;6.10;;;14.60;99.90;;;-141.84;49.74;20515.06;5066165;28;20642;-68
2023/05/08 09:55:06;;;;;;;9.73;6.55;;;14.70;99.90;;;-141.84;49.24;20504.91;5064745;28;20765;-69
2023/05/08 09:57:38;;;;;;;6.88;6.22;;;14.80;99.90;;;-141.84;49.15;20519.13;5068295;28;20188;-65
2023/05/08 10:00:08;;;;;;;6.43;5.88;;;14.90;99.90;;;-141.84;48.81;20517.09;5068661;28;20180;-66
2023/05/08 10:02:39;;;;;;;6.60;6.00;;;14.90;99.90;;;-141.84;49.07;20523.19;5068504;28;20243;-65
2023/05/08 10:05:24;;;;;;;6.50;5.88;;;15.00;99.90;;;-141.84;48.73;20543.53;5068136;28;20289;-65
2023/05/08 10:07:53;;;;;;;7.35;6.65;;;15.00;99.90;;;-141.84;48.71;20525.22;5069445;28;20205;-73
2023/05/08 10:10:26;;;;;;;6.68;6.03;;;14.90;99.90;;;-141.84;48.74;20537.44;5070466;28;20200;-74
2023/05/08 10:12:56;;;;;;;6.93;6.13;;;15.00;99.90;;;-141.84;48.88;20590.28;5072612;28;20272;-68
2023/05/08 10:15:29;;;;;;;6.25;5.75;;;15.00;99.90;;;-141.84;47.88;20592.31;5069460;28;20188;-67
2023/05/08 10:18:05;;;;;;;5.88;5.38;;;15.10;99.90;;;-141.84;48.29;20602.47;5068602;28;20208;-68
2023/05/08 10:20:39;;;;;;;6.20;5.65;;;15.20;99.90;;;-141.84;47.88;20602.47;5068571;28;20184;-71
2023/05/08 10:23:11;;;;;;;6.00;5.18;;;15.30;99.90;;;-141.84;47.55;20618.72;5067735;28;20197;-70
2023/05/08 10:25:46;;;;;;;5.70;5.13;;;15.40;99.90;;;-141.84;47.33;20635.00;5068742;28;20197;-70
2023/05/08 10:28:29;;;;;;;5.78;5.28;;;15.40;99.90;;;-141.84;46.69;20649.22;5069495;28;20223;-69
2023/05/08 10:31:04;;;;;;;5.30;4.80;;;15.50;99.90;;;-141.84;47.09;20677.69;5070097;28;20201;-70
2023/05/08 10:33:35;;;;;;;5.38;4.78;;;15.50;99.90;;;-141.84;46.90;20620.78;5069047;28;20222;-69